sensor_id;sensor_type;location;lat;lon;timestamp;pressure;altitude;pressure_sealevel;temperature;humidity
66547;BME280;53400;50.364;14.874;2022-09-09T00:01:58;98383.28;;;13.71;98.37
66547;BME280;53400;50.364;14.874;2022-09-09T00:04:27;98375.47;;;13.85;97.00
66547;BME280;53400;50.364;14.874;2022-09-09T00:07:01;98384.59;;;13.84;95.28
66547;BME280;53400;50.364;14.874;2022-09-09T00:09:31;98373.81;;;13.99;93.48
66547;BME280;53400;50.364;14.874;2022-09-09T00:12:03;98376.50;;;14.09;92.33
66547;BME280;53400;50.364;14.874;2022-09-09T00:14:37;98371.38;;;14.08;91.86
66547;BME280;53400;50.364;14.874;2022-09-09T00:17:09;98367.81;;;14.17;92.14
66547;BME280;53400;50.364;14.874;2022-09-09T00:19:42;98371.66;;;14.06;93.58
66547;BME280;53400;50.364;14.874;2022-09-09T00:22:15;98364.88;;;14.09;92.54
66547;BME280;53400;50.364;14.874;2022-09-09T00:24:44;98363.88;;;13.84;93.56
66547;BME280;53400;50.364;14.874;2022-09-09T00:27:16;98360.34;;;13.99;95.38
66547;BME280;53400;50.364;14.874;2022-09-09T00:29:50;98364.38;;;13.96;93.88
66547;BME280;53400;50.364;14.874;2022-09-09T00:32:19;98363.31;;;13.87;92.92
66547;BME280;53400;50.364;14.874;2022-09-09T00:34:49;98363.91;;;13.79;93.45
66547;BME280;53400;50.364;14.874;2022-09-09T00:37:16;98374.66;;;13.74;93.80
66547;BME280;53400;50.364;14.874;2022-09-09T00:39:46;98367.97;;;13.46;94.41
66547;BME280;53400;50.364;14.874;2022-09-09T00:42:16;98366.31;;;13.24;95.36
66547;BME280;53400;50.364;14.874;2022-09-09T00:44:56;98366.88;;;13.31;95.68
66547;BME280;53400;50.364;14.874;2022-09-09T00:47:41;98369.53;;;13.06;96.80
66547;BME280;53400;50.364;14.874;2022-09-09T00:50:21;98373.81;;;12.97;97.82
66547;BME280;53400;50.364;14.874;2022-09-09T00:52:59;98374.63;;;12.97;100.00
66547;BME280;53400;50.364;14.874;2022-09-09T00:55:34;98377.34;;;13.13;100.00
66547;BME280;53400;50.364;14.874;2022-09-09T00:58:07;98380.28;;;13.11;98.94
66547;BME280;53400;50.364;14.874;2022-09-09T01:00:39;98384.06;;;13.20;97.56
66547;BME280;53400;50.364;14.874;2022-09-09T01:03:18;98385.19;;;13.50;95.69
66547;BME280;53400;50.364;14.874;2022-09-09T01:05:54;98383.00;;;13.77;93.06
66547;BME280;53400;50.364;14.874;2022-09-09T01:08:36;98398.34;;;13.72;94.21
66547;BME280;53400;50.364;14.874;2022-09-09T01:11:07;98391.09;;;13.67;93.69
66547;BME280;53400;50.364;14.874;2022-09-09T01:13:36;98398.63;;;13.65;93.28
66547;BME280;53400;50.364;14.874;2022-09-09T01:16:06;98405.06;;;13.59;92.75
66547;BME280;53400;50.364;14.874;2022-09-09T01:18:36;98397.56;;;13.61;93.47
66547;BME280;53400;50.364;14.874;2022-09-09T01:21:09;98395.09;;;13.19;95.68
66547;BME280;53400;50.364;14.874;2022-09-09T01:23:54;98403.41;;;13.17;94.59
66547;BME280;53400;50.364;14.874;2022-09-09T01:26:30;98411.53;;;13.32;95.19
66547;BME280;53400;50.364;14.874;2022-09-09T01:28:58;98408.31;;;13.56;93.23
66547;BME280;53400;50.364;14.874;2022-09-09T01:31:27;98405.88;;;13.29;94.79
66547;BME280;53400;50.364;14.874;2022-09-09T01:33:54;98401.03;;;13.41;95.78
66547;BME280;53400;50.364;14.874;2022-09-09T01:36:26;98400.72;;;13.22;96.73
66547;BME280;53400;50.364;14.874;2022-09-09T01:38:55;98401.00;;;13.16;95.75
66547;BME280;53400;50.364;14.874;2022-09-09T01:41:21;98408.25;;;13.15;94.72
66547;BME280;53400;50.364;14.874;2022-09-09T01:43:49;98404.47;;;13.01;98.23
66547;BME280;53400;50.364;14.874;2022-09-09T01:46:16;98395.34;;;13.07;97.01
66547;BME280;53400;50.364;14.874;2022-09-09T01:55:09;98388.44;;;11.90;100.00
66547;BME280;53400;50.364;14.874;2022-09-09T01:57:40;98391.00;;;11.75;100.00
66547;BME280;53400;50.364;14.874;2022-09-09T02:00:13;98392.44;;;11.88;100.00
66547;BME280;53400;50.364;14.874;2022-09-09T02:02:44;98386.38;;;12.03;100.00
66547;BME280;53400;50.364;14.874;2022-09-09T02:05:21;98389.06;;;12.08;100.00
66547;BME280;53400;50.364;14.874;2022-09-09T02:07:54;98388.00;;;12.09;100.00
66547;BME280;53400;50.364;14.874;2022-09-09T02:10:24;98392.69;;;12.34;100.00
66547;BME280;53400;50.364;14.874;2022-09-09T02:12:58;98389.16;;;12.28;100.00
66547;BME280;53400;50.364;14.874;2022-09-09T02:15:32;98391.34;;;12.31;100.00
66547;BME280;53400;50.364;14.874;2022-09-09T02:18:01;98391.47;;;12.04;100.00
66547;BME280;53400;50.364;14.874;2022-09-09T02:20:32;98393.69;;;11.43;100.00
66547;BME280;53400;50.364;14.874;2022-09-09T02:22:59;98392.88;;;11.42;100.00
66547;BME280;53400;50.364;14.874;2022-09-09T02:25:28;98390.03;;;11.54;100.00
66547;BME280;53400;50.364;14.874;2022-09-09T02:27:57;98392.44;;;11.56;100.00
66547;BME280;53400;50.364;14.874;2022-09-09T02:30:24;98392.44;;;11.56;100.00
66547;BME280;53400;50.364;14.874;2022-09-09T02:32:54;98396.88;;;11.72;100.00
66547;BME280;53400;50.364;14.874;2022-09-09T02:35:26;98397.13;;;12.08;100.00
66547;BME280;53400;50.364;14.874;2022-09-09T02:37:56;98406.38;;;12.32;100.00
66547;BME280;53400;50.364;14.874;2022-09-09T02:40:28;98407.47;;;12.36;100.00
66547;BME280;53400;50.364;14.874;2022-09-09T02:42:54;98404.03;;;12.46;100.00
66547;BME280;53400;50.364;14.874;2022-09-09T02:45:24;98402.88;;;12.32;100.00
66547;BME280;53400;50.364;14.874;2022-09-09T02:47:58;98406.94;;;11.87;100.00
66547;BME280;53400;50.364;14.874;2022-09-09T02:50:32;98404.94;;;11.72;100.00
66547;BME280;53400;50.364;14.874;2022-09-09T02:53:06;98402.94;;;11.57;100.00
66547;BME280;53400;50.364;14.874;2022-09-09T02:55:38;98399.06;;;11.43;100.00
66547;BME280;53400;50.364;14.874;2022-09-09T02:58:08;98395.63;;;11.47;100.00
66547;BME280;53400;50.364;14.874;2022-09-09T03:00:38;98403.50;;;11.64;100.00
66547;BME280;53400;50.364;14.874;2022-09-09T03:03:07;98412.94;;;11.99;100.00
66547;BME280;53400;50.364;14.874;2022-09-09T03:05:34;98399.34;;;12.21;100.00
66547;BME280;53400;50.364;14.874;2022-09-09T03:08:02;98399.69;;;12.40;100.00
66547;BME280;53400;50.364;14.874;2022-09-09T03:10:28;98398.41;;;12.53;100.00
66547;BME280;53400;50.364;14.874;2022-09-09T03:12:54;98403.28;;;12.61;100.00
66547;BME280;53400;50.364;14.874;2022-09-09T03:15:21;98412.97;;;12.67;100.00
66547;BME280;53400;50.364;14.874;2022-09-09T03:17:47;98409.22;;;12.63;100.00
66547;BME280;53400;50.364;14.874;2022-09-09T03:20:14;98404.59;;;12.53;100.00
66547;BME280;53400;50.364;14.874;2022-09-09T03:22:40;98406.03;;;12.76;100.00
66547;BME280;53400;50.364;14.874;2022-09-09T03:25:07;98409.81;;;12.96;100.00
66547;BME280;53400;50.364;14.874;2022-09-09T03:27:33;98409.84;;;13.01;100.00
66547;BME280;53400;50.364;14.874;2022-09-09T03:29:59;98416.59;;;13.14;100.00
66547;BME280;53400;50.364;14.874;2022-09-09T03:32:29;98422.78;;;13.19;100.00
66547;BME280;53400;50.364;14.874;2022-09-09T03:34:56;98427.91;;;13.26;100.00
66547;BME280;53400;50.364;14.874;2022-09-09T03:37:24;98423.28;;;13.11;100.00
66547;BME280;53400;50.364;14.874;2022-09-09T03:39:50;98423.00;;;12.97;100.00
66547;BME280;53400;50.364;14.874;2022-09-09T03:42:16;98421.13;;;12.98;100.00
66547;BME280;53400;50.364;14.874;2022-09-09T03:44:45;98421.31;;;12.71;100.00
66547;BME280;53400;50.364;14.874;2022-09-09T03:47:16;98414.84;;;12.61;100.00
66547;BME280;53400;50.364;14.874;2022-09-09T03:49:42;98414.72;;;12.41;100.00
66547;BME280;53400;50.364;14.874;2022-09-09T03:52:08;98413.13;;;11.92;100.00
66547;BME280;53400;50.364;14.874;2022-09-09T03:54:35;98412.75;;;11.79;100.00
66547;BME280;53400;50.364;14.874;2022-09-09T03:57:01;98413.72;;;11.67;100.00
66547;BME280;53400;50.364;14.874;2022-09-09T03:59:27;98414.81;;;11.66;100.00
66547;BME280;53400;50.364;14.874;2022-09-09T04:01:53;98417.81;;;11.75;100.00
66547;BME280;53400;50.364;14.874;2022-09-09T04:04:20;98411.28;;;11.98;100.00
66547;BME280;53400;50.364;14.874;2022-09-09T04:06:46;98421.69;;;11.89;100.00
66547;BME280;53400;50.364;14.874;2022-09-09T04:09:13;98419.63;;;11.97;100.00
66547;BME280;53400;50.364;14.874;2022-09-09T04:11:40;98420.53;;;11.80;100.00
66547;BME280;53400;50.364;14.874;2022-09-09T04:14:06;98417.72;;;11.65;100.00
66547;BME280;53400;50.364;14.874;2022-09-09T04:16:32;98416.78;;;11.81;100.00
66547;BME280;53400;50.364;14.874;2022-09-09T04:18:58;98412.28;;;11.55;100.00
66547;BME280;53400;50.364;14.874;2022-09-09T04:21:25;98411.16;;;11.45;100.00
66547;BME280;53400;50.364;14.874;2022-09-09T04:23:51;98410.53;;;11.70;100.00
66547;BME280;53400;50.364;14.874;2022-09-09T04:26:18;98403.28;;;11.66;100.00
66547;BME280;53400;50.364;14.874;2022-09-09T04:28:45;98400.78;;;11.59;100.00
66547;BME280;53400;50.364;14.874;2022-09-09T04:31:16;98407.50;;;11.57;100.00
66547;BME280;53400;50.364;14.874;2022-09-09T04:33:43;98409.34;;;11.24;100.00
66547;BME280;53400;50.364;14.874;2022-09-09T04:36:09;98402.53;;;11.43;100.00
66547;BME280;53400;50.364;14.874;2022-09-09T04:38:35;98409.94;;;10.99;100.00
66547;BME280;53400;50.364;14.874;2022-09-09T04:41:01;98411.53;;;11.00;100.00
66547;BME280;53400;50.364;14.874;2022-09-09T04:43:27;98419.88;;;11.31;100.00
66547;BME280;53400;50.364;14.874;2022-09-09T04:45:54;98422.91;;;11.12;100.00
66547;BME280;53400;50.364;14.874;2022-09-09T04:48:21;98415.63;;;10.59;100.00
66547;BME280;53400;50.364;14.874;2022-09-09T04:50:54;98420.97;;;10.37;100.00
66547;BME280;53400;50.364;14.874;2022-09-09T04:53:20;98417.06;;;10.44;100.00
66547;BME280;53400;50.364;14.874;2022-09-09T04:55:48;98420.53;;;10.67;100.00
66547;BME280;53400;50.364;14.874;2022-09-09T04:58:14;98428.06;;;11.19;100.00
66547;BME280;53400;50.364;14.874;2022-09-09T05:00:40;98427.19;;;11.13;100.00
66547;BME280;53400;50.364;14.874;2022-09-09T05:03:08;98436.00;;;11.09;100.00
66547;BME280;53400;50.364;14.874;2022-09-09T05:05:34;98437.03;;;11.30;100.00
66547;BME280;53400;50.364;14.874;2022-09-09T05:08:01;98430.59;;;11.31;100.00
66547;BME280;53400;50.364;14.874;2022-09-09T05:10:28;98431.75;;;11.40;100.00
66547;BME280;53400;50.364;14.874;2022-09-09T05:12:54;98430.56;;;11.58;100.00
66547;BME280;53400;50.364;14.874;2022-09-09T05:15:20;98427.56;;;11.86;100.00
66547;BME280;53400;50.364;14.874;2022-09-09T05:17:46;98429.88;;;12.10;100.00
66547;BME280;53400;50.364;14.874;2022-09-09T05:20:14;98440.09;;;12.13;100.00
66547;BME280;53400;50.364;14.874;2022-09-09T05:22:40;98433.94;;;12.12;100.00
66547;BME280;53400;50.364;14.874;2022-09-09T05:25:06;98437.09;;;12.04;100.00
66547;BME280;53400;50.364;14.874;2022-09-09T05:27:33;98438.50;;;12.17;100.00
66547;BME280;53400;50.364;14.874;2022-09-09T05:29:59;98446.78;;;12.05;100.00
66547;BME280;53400;50.364;14.874;2022-09-09T05:32:25;98444.94;;;12.16;100.00
66547;BME280;53400;50.364;14.874;2022-09-09T05:34:51;98451.50;;;12.35;100.00
66547;BME280;53400;50.364;14.874;2022-09-09T05:37:19;98448.53;;;12.32;100.00
66547;BME280;53400;50.364;14.874;2022-09-09T05:39:45;98461.34;;;12.20;100.00
66547;BME280;53400;50.364;14.874;2022-09-09T05:42:10;98455.34;;;12.02;100.00
66547;BME280;53400;50.364;14.874;2022-09-09T05:44:36;98466.75;;;11.55;100.00
66547;BME280;53400;50.364;14.874;2022-09-09T05:47:03;98464.06;;;11.55;100.00
66547;BME280;53400;50.364;14.874;2022-09-09T05:49:28;98457.56;;;11.78;100.00
66547;BME280;53400;50.364;14.874;2022-09-09T05:51:54;98456.25;;;11.81;100.00
66547;BME280;53400;50.364;14.874;2022-09-09T05:54:22;98461.75;;;12.01;100.00
66547;BME280;53400;50.364;14.874;2022-09-09T05:56:47;98462.59;;;12.07;100.00
66547;BME280;53400;50.364;14.874;2022-09-09T05:59:18;98459.94;;;12.07;100.00
66547;BME280;53400;50.364;14.874;2022-09-09T06:01:44;98461.25;;;12.04;100.00
66547;BME280;53400;50.364;14.874;2022-09-09T06:04:11;98456.41;;;12.01;100.00
66547;BME280;53400;50.364;14.874;2022-09-09T06:06:37;98453.84;;;12.22;100.00
66547;BME280;53400;50.364;14.874;2022-09-09T06:09:07;98459.50;;;12.25;100.00
66547;BME280;53400;50.364;14.874;2022-09-09T06:11:37;98460.19;;;12.05;100.00
66547;BME280;53400;50.364;14.874;2022-09-09T06:14:04;98456.88;;;12.35;100.00
66547;BME280;53400;50.364;14.874;2022-09-09T06:16:31;98461.63;;;12.18;100.00
66547;BME280;53400;50.364;14.874;2022-09-09T06:19:00;98450.22;;;12.01;100.00
66547;BME280;53400;50.364;14.874;2022-09-09T06:21:28;98459.88;;;12.39;100.00
66547;BME280;53400;50.364;14.874;2022-09-09T06:23:56;98452.44;;;12.61;100.00
66547;BME280;53400;50.364;14.874;2022-09-09T06:26:23;98448.44;;;12.64;100.00
66547;BME280;53400;50.364;14.874;2022-09-09T06:28:53;98460.25;;;12.63;100.00
66547;BME280;53400;50.364;14.874;2022-09-09T06:31:21;98465.44;;;12.85;100.00
66547;BME280;53400;50.364;14.874;2022-09-09T06:33:48;98466.53;;;12.99;100.00
66547;BME280;53400;50.364;14.874;2022-09-09T06:36:16;98474.63;;;13.04;100.00
66547;BME280;53400;50.364;14.874;2022-09-09T06:38:42;98476.88;;;13.28;100.00
66547;BME280;53400;50.364;14.874;2022-09-09T06:41:09;98473.94;;;13.40;100.00
66547;BME280;53400;50.364;14.874;2022-09-09T06:43:35;98479.06;;;13.57;100.00
66547;BME280;53400;50.364;14.874;2022-09-09T06:46:06;98479.59;;;13.53;100.00
66547;BME280;53400;50.364;14.874;2022-09-09T06:48:33;98472.63;;;13.88;100.00
66547;BME280;53400;50.364;14.874;2022-09-09T06:51:03;98480.97;;;13.97;100.00
66547;BME280;53400;50.364;14.874;2022-09-09T06:53:30;98480.16;;;14.07;100.00
66547;BME280;53400;50.364;14.874;2022-09-09T06:55:59;98483.94;;;13.95;100.00
66547;BME280;53400;50.364;14.874;2022-09-09T06:58:26;98481.47;;;14.19;100.00
66547;BME280;53400;50.364;14.874;2022-09-09T07:00:52;98481.25;;;13.80;100.00
66547;BME280;53400;50.364;14.874;2022-09-09T07:03:19;98483.41;;;13.58;100.00
66547;BME280;53400;50.364;14.874;2022-09-09T07:05:54;98483.63;;;14.22;100.00
66547;BME280;53400;50.364;14.874;2022-09-09T07:08:20;98486.81;;;14.45;100.00
66547;BME280;53400;50.364;14.874;2022-09-09T07:10:46;98485.09;;;14.85;100.00
66547;BME280;53400;50.364;14.874;2022-09-09T07:13:13;98476.00;;;15.25;99.22
66547;BME280;53400;50.364;14.874;2022-09-09T07:15:41;98476.13;;;15.00;98.98
66547;BME280;53400;50.364;14.874;2022-09-09T07:18:07;98482.50;;;14.59;100.00
66547;BME280;53400;50.364;14.874;2022-09-09T07:20:36;98479.81;;;14.49;100.00
66547;BME280;53400;50.364;14.874;2022-09-09T07:23:02;98480.31;;;14.72;100.00
66547;BME280;53400;50.364;14.874;2022-09-09T07:25:28;98474.22;;;15.05;100.00
66547;BME280;53400;50.364;14.874;2022-09-09T07:27:55;98473.31;;;15.25;100.00
66547;BME280;53400;50.364;14.874;2022-09-09T07:30:21;98471.81;;;15.48;100.00
66547;BME280;53400;50.364;14.874;2022-09-09T07:32:50;98479.53;;;15.70;98.75
66547;BME280;53400;50.364;14.874;2022-09-09T07:35:16;98478.53;;;15.90;98.15
66547;BME280;53400;50.364;14.874;2022-09-09T07:37:44;98474.31;;;16.13;96.85
66547;BME280;53400;50.364;14.874;2022-09-09T07:40:11;98475.53;;;16.26;95.81
66547;BME280;53400;50.364;14.874;2022-09-09T07:42:36;98474.75;;;15.91;97.61
66547;BME280;53400;50.364;14.874;2022-09-09T07:45:03;98478.63;;;16.09;96.24
66547;BME280;53400;50.364;14.874;2022-09-09T07:47:29;98477.22;;;16.17;95.75
66547;BME280;53400;50.364;14.874;2022-09-09T07:49:55;98476.50;;;16.35;95.08
66547;BME280;53400;50.364;14.874;2022-09-09T07:52:21;98474.41;;;16.56;92.64
66547;BME280;53400;50.364;14.874;2022-09-09T07:54:49;98475.19;;;16.57;93.25
66547;BME280;53400;50.364;14.874;2022-09-09T07:57:14;98480.41;;;16.77;93.96
66547;BME280;53400;50.364;14.874;2022-09-09T07:59:42;98484.91;;;17.06;93.24
66547;BME280;53400;50.364;14.874;2022-09-09T08:02:08;98483.91;;;16.78;92.62
66547;BME280;53400;50.364;14.874;2022-09-09T08:04:35;98484.28;;;16.66;93.80
66547;BME280;53400;50.364;14.874;2022-09-09T08:07:01;98492.84;;;16.78;93.38
66547;BME280;53400;50.364;14.874;2022-09-09T08:09:28;98495.09;;;17.14;90.91
66547;BME280;53400;50.364;14.874;2022-09-09T08:11:56;98506.00;;;17.28;89.82
66547;BME280;53400;50.364;14.874;2022-09-09T08:14:24;98495.78;;;17.01;91.27
66547;BME280;53400;50.364;14.874;2022-09-09T08:16:50;98489.59;;;17.19;91.34
66547;BME280;53400;50.364;14.874;2022-09-09T08:19:19;98489.31;;;17.20;90.67
66547;BME280;53400;50.364;14.874;2022-09-09T08:21:45;98485.34;;;17.13;88.91
66547;BME280;53400;50.364;14.874;2022-09-09T08:24:12;98483.25;;;17.29;88.17
66547;BME280;53400;50.364;14.874;2022-09-09T08:26:42;98483.47;;;17.32;88.56
66547;BME280;53400;50.364;14.874;2022-09-09T08:29:11;98484.69;;;17.59;87.95
66547;BME280;53400;50.364;14.874;2022-09-09T08:31:40;98490.03;;;17.83;88.10
66547;BME280;53400;50.364;14.874;2022-09-09T08:34:07;98487.66;;;17.62;86.77
66547;BME280;53400;50.364;14.874;2022-09-09T08:36:35;98489.47;;;17.67;87.11
66547;BME280;53400;50.364;14.874;2022-09-09T08:39:03;98502.28;;;18.13;85.23
66547;BME280;53400;50.364;14.874;2022-09-09T08:41:51;98499.53;;;18.46;84.54
66547;BME280;53400;50.364;14.874;2022-09-09T08:44:28;98507.00;;;18.68;80.87
66547;BME280;53400;50.364;14.874;2022-09-09T08:47:04;98509.91;;;18.57;80.03
66547;BME280;53400;50.364;14.874;2022-09-09T08:49:53;98505.63;;;18.84;79.31
66547;BME280;53400;50.364;14.874;2022-09-09T08:52:23;98505.91;;;18.83;78.66
66547;BME280;53400;50.364;14.874;2022-09-09T08:54:51;98508.31;;;18.98;77.08
66547;BME280;53400;50.364;14.874;2022-09-09T08:57:21;98510.91;;;18.48;80.61
66547;BME280;53400;50.364;14.874;2022-09-09T08:59:54;98509.72;;;19.09;78.67
66547;BME280;53400;50.364;14.874;2022-09-09T09:02:25;98499.00;;;19.54;76.98
66547;BME280;53400;50.364;14.874;2022-09-09T09:05:07;98496.88;;;19.87;75.00
66547;BME280;53400;50.364;14.874;2022-09-09T09:07:48;98498.59;;;20.06;74.11
66547;BME280;53400;50.364;14.874;2022-09-09T09:10:21;98496.19;;;20.35;72.54
66547;BME280;53400;50.364;14.874;2022-09-09T09:12:51;98490.84;;;20.22;72.07
66547;BME280;53400;50.364;14.874;2022-09-09T09:15:23;98487.09;;;20.40;71.47
66547;BME280;53400;50.364;14.874;2022-09-09T09:17:50;98485.38;;;20.84;69.68
66547;BME280;53400;50.364;14.874;2022-09-09T09:20:18;98492.44;;;20.85;69.05
66547;BME280;53400;50.364;14.874;2022-09-09T09:22:50;98495.28;;;20.40;71.18
66547;BME280;53400;50.364;14.874;2022-09-09T09:25:18;98489.69;;;20.76;70.28
66547;BME280;53400;50.364;14.874;2022-09-09T09:27:49;98492.00;;;21.00;68.57
66547;BME280;53400;50.364;14.874;2022-09-09T09:30:21;98487.16;;;20.89;66.61
66547;BME280;53400;50.364;14.874;2022-09-09T09:32:53;98469.66;;;20.72;67.88
66547;BME280;53400;50.364;14.874;2022-09-09T09:35:20;98474.00;;;20.73;67.43
66547;BME280;53400;50.364;14.874;2022-09-09T09:37:46;98471.66;;;20.98;69.08
66547;BME280;53400;50.364;14.874;2022-09-09T09:40:15;98469.78;;;21.16;68.41
66547;BME280;53400;50.364;14.874;2022-09-09T09:42:48;98468.31;;;21.10;68.23
66547;BME280;53400;50.364;14.874;2022-09-09T09:45:17;98469.66;;;21.56;65.17
66547;BME280;53400;50.364;14.874;2022-09-09T09:47:58;98477.34;;;21.80;63.49
66547;BME280;53400;50.364;14.874;2022-09-09T09:50:24;98472.63;;;22.15;64.19
66547;BME280;53400;50.364;14.874;2022-09-09T09:52:54;98468.03;;;21.98;63.81
66547;BME280;53400;50.364;14.874;2022-09-09T09:55:21;98464.31;;;22.03;62.77
66547;BME280;53400;50.364;14.874;2022-09-09T09:57:49;98466.22;;;22.11;61.08
66547;BME280;53400;50.364;14.874;2022-09-09T10:00:18;98457.97;;;21.46;63.01
66547;BME280;53400;50.364;14.874;2022-09-09T10:02:46;98466.47;;;21.62;60.99
66547;BME280;53400;50.364;14.874;2022-09-09T10:05:16;98452.81;;;21.71;64.32
66547;BME280;53400;50.364;14.874;2022-09-09T10:07:43;98447.38;;;21.88;64.61
66547;BME280;53400;50.364;14.874;2022-09-09T10:10:15;98458.06;;;22.02;62.25
66547;BME280;53400;50.364;14.874;2022-09-09T10:12:54;98451.84;;;21.84;64.61
66547;BME280;53400;50.364;14.874;2022-09-09T10:15:32;98448.31;;;21.23;67.29
66547;BME280;53400;50.364;14.874;2022-09-09T10:18:12;98454.75;;;21.79;65.14
66547;BME280;53400;50.364;14.874;2022-09-09T10:20:47;98454.88;;;22.56;60.77
66547;BME280;53400;50.364;14.874;2022-09-09T10:23:25;98462.44;;;22.50;60.46
66547;BME280;53400;50.364;14.874;2022-09-09T10:26:07;98454.22;;;22.59;60.45
66547;BME280;53400;50.364;14.874;2022-09-09T10:28:56;98451.03;;;22.48;61.06
66547;BME280;53400;50.364;14.874;2022-09-09T10:31:36;98446.94;;;22.33;61.34
66547;BME280;53400;50.364;14.874;2022-09-09T10:34:16;98436.47;;;21.53;64.24
66547;BME280;53400;50.364;14.874;2022-09-09T10:36:48;98440.16;;;21.75;64.01
66547;BME280;53400;50.364;14.874;2022-09-09T10:39:32;98433.59;;;21.76;64.90
66547;BME280;53400;50.364;14.874;2022-09-09T10:42:04;98433.91;;;21.74;63.17
66547;BME280;53400;50.364;14.874;2022-09-09T10:44:49;98431.94;;;21.92;63.02
66547;BME280;53400;50.364;14.874;2022-09-09T10:47:34;98430.38;;;21.57;63.14
66547;BME280;53400;50.364;14.874;2022-09-09T10:50:21;98434.38;;;21.85;61.54
66547;BME280;53400;50.364;14.874;2022-09-09T10:52:59;98433.66;;;22.06;60.86
66547;BME280;53400;50.364;14.874;2022-09-09T10:55:33;98431.03;;;22.74;59.88
66547;BME280;53400;50.364;14.874;2022-09-09T10:58:03;98431.91;;;22.57;59.29
66547;BME280;53400;50.364;14.874;2022-09-09T11:00:37;98429.31;;;22.99;58.58
66547;BME280;53400;50.364;14.874;2022-09-09T11:03:04;98429.03;;;23.33;57.29
66547;BME280;53400;50.364;14.874;2022-09-09T11:05:37;98433.03;;;23.15;52.62
66547;BME280;53400;50.364;14.874;2022-09-09T11:08:11;98422.56;;;23.59;51.97
66547;BME280;53400;50.364;14.874;2022-09-09T11:10:39;98423.50;;;23.42;52.20
66547;BME280;53400;50.364;14.874;2022-09-09T11:13:11;98419.63;;;23.97;50.99
66547;BME280;53400;50.364;14.874;2022-09-09T11:15:43;98417.97;;;23.72;51.14
66547;BME280;53400;50.364;14.874;2022-09-09T11:18:17;98411.03;;;23.53;51.95
66547;BME280;53400;50.364;14.874;2022-09-09T11:20:47;98404.94;;;23.69;50.34
66547;BME280;53400;50.364;14.874;2022-09-09T11:23:18;98404.59;;;22.95;48.84
66547;BME280;53400;50.364;14.874;2022-09-09T11:25:50;98403.66;;;23.12;49.46
66547;BME280;53400;50.364;14.874;2022-09-09T11:28:28;98404.31;;;22.58;53.19
66547;BME280;53400;50.364;14.874;2022-09-09T11:31:09;98404.88;;;22.64;55.19
66547;BME280;53400;50.364;14.874;2022-09-09T11:33:53;98409.09;;;22.61;53.88
66547;BME280;53400;50.364;14.874;2022-09-09T11:36:48;98411.59;;;23.05;53.42
66547;BME280;53400;50.364;14.874;2022-09-09T11:42:18;98384.94;;;23.44;51.25
66547;BME280;53400;50.364;14.874;2022-09-09T11:44:44;98400.97;;;23.24;52.84
66547;BME280;53400;50.364;14.874;2022-09-09T11:47:19;98389.72;;;23.47;51.12
66547;BME280;53400;50.364;14.874;2022-09-09T11:49:47;98386.69;;;23.61;51.03
66547;BME280;53400;50.364;14.874;2022-09-09T11:52:21;98383.28;;;23.64;51.50
66547;BME280;53400;50.364;14.874;2022-09-09T11:54:49;98384.03;;;22.98;54.13
66547;BME280;53400;50.364;14.874;2022-09-09T11:57:27;98395.69;;;23.07;53.25
66547;BME280;53400;50.364;14.874;2022-09-09T11:59:56;98390.66;;;23.30;51.93
66547;BME280;53400;50.364;14.874;2022-09-09T12:02:24;98392.38;;;23.55;50.71
66547;BME280;53400;50.364;14.874;2022-09-09T12:04:56;98394.75;;;23.57;50.46
66547;BME280;53400;50.364;14.874;2022-09-09T12:07:26;98400.13;;;23.87;50.12
66547;BME280;53400;50.364;14.874;2022-09-09T12:09:59;98397.56;;;23.48;50.25
66547;BME280;53400;50.364;14.874;2022-09-09T12:12:29;98391.13;;;23.32;51.27
66547;BME280;53400;50.364;14.874;2022-09-09T12:15:21;98378.50;;;23.40;51.70
66547;BME280;53400;50.364;14.874;2022-09-09T12:17:49;98379.72;;;23.30;52.06
66547;BME280;53400;50.364;14.874;2022-09-09T12:20:20;98378.22;;;22.99;52.86
66547;BME280;53400;50.364;14.874;2022-09-09T12:25:56;98369.28;;;23.32;51.37
66547;BME280;53400;50.364;14.874;2022-09-09T12:28:27;98362.94;;;23.52;50.74
66547;BME280;53400;50.364;14.874;2022-09-09T12:31:07;98370.56;;;23.13;52.19
66547;BME280;53400;50.364;14.874;2022-09-09T12:33:35;98379.22;;;22.95;53.30
66547;BME280;53400;50.364;14.874;2022-09-09T12:36:03;98366.00;;;22.46;53.72
66547;BME280;53400;50.364;14.874;2022-09-09T12:38:37;98365.13;;;22.54;53.96
66547;BME280;53400;50.364;14.874;2022-09-09T12:41:05;98349.97;;;22.95;52.52
66547;BME280;53400;50.364;14.874;2022-09-09T12:43:31;98361.88;;;23.11;52.62
66547;BME280;53400;50.364;14.874;2022-09-09T12:46:00;98361.25;;;22.85;52.68
66547;BME280;53400;50.364;14.874;2022-09-09T12:48:38;98350.91;;;22.99;52.98
66547;BME280;53400;50.364;14.874;2022-09-09T12:51:24;98352.66;;;22.74;51.44
66547;BME280;53400;50.364;14.874;2022-09-09T12:53:50;98355.41;;;22.74;51.78
66547;BME280;53400;50.364;14.874;2022-09-09T12:56:22;98366.88;;;22.29;53.15
66547;BME280;53400;50.364;14.874;2022-09-09T12:58:51;98384.00;;;22.38;55.98
66547;BME280;53400;50.364;14.874;2022-09-09T13:01:21;98384.25;;;22.16;60.74
66547;BME280;53400;50.364;14.874;2022-09-09T13:03:48;98380.16;;;21.92;63.63
66547;BME280;53400;50.364;14.874;2022-09-09T13:06:19;98370.91;;;21.67;65.16
66547;BME280;53400;50.364;14.874;2022-09-09T13:08:48;98366.94;;;22.03;62.08
66547;BME280;53400;50.364;14.874;2022-09-09T13:11:17;98381.53;;;22.07;62.80
66547;BME280;53400;50.364;14.874;2022-09-09T13:13:52;98382.31;;;21.61;64.70